createdAt,value
2017-10-04T00:00:15.004Z,12.67
2017-10-04T00:01:14.990Z,12.64
2017-10-04T00:02:14.652Z,12.63
2017-10-04T00:03:14.315Z,12.57
2017-10-04T00:04:14.942Z,12.6
2017-10-04T00:05:14.937Z,12.56
2017-10-04T00:06:14.603Z,12.62
2017-10-04T00:07:14.898Z,12.66
2017-10-04T00:08:14.563Z,12.66
2017-10-04T00:09:14.898Z,12.64
2017-10-04T00:10:14.733Z,12.63
2017-10-04T00:11:14.521Z,12.63
2017-10-04T00:12:14.503Z,12.69
2017-10-04T00:13:14.494Z,12.63
2017-10-04T00:14:14.472Z,12.59
2017-10-04T00:15:14.466Z,12.64
2017-10-04T00:16:14.763Z,12.64
2017-10-04T00:17:14.106Z,12.59
2017-10-04T00:18:14.419Z,12.66
2017-10-04T00:19:14.727Z,12.67
2017-10-04T00:20:14.394Z,12.63
2017-10-04T00:21:14.376Z,12.63
2017-10-04T00:22:14.353Z,12.66
2017-10-04T00:23:14.017Z,12.66
2017-10-04T00:24:14.321Z,12.7
2017-10-04T00:25:14.317Z,12.64
2017-10-04T00:26:14.620Z,12.66
2017-10-04T00:27:14.597Z,12.6
2017-10-04T00:28:14.635Z,12.66
2017-10-04T00:29:14.251Z,12.7
2017-10-04T00:30:14.234Z,12.6
2017-10-04T00:31:14.222Z,12.6
2017-10-04T00:32:14.199Z,12.62
2017-10-04T00:33:14.512Z,12.6
2017-10-04T00:34:13.853Z,12.69
2017-10-04T00:35:14.480Z,12.69
2017-10-04T00:36:14.151Z,12.69
2017-10-04T00:37:14.489Z,12.69
2017-10-04T00:38:14.434Z,12.67
2017-10-04T00:39:13.774Z,12.69
2017-10-04T00:40:14.409Z,12.7
2017-10-04T00:41:14.070Z,12.69
2017-10-04T00:42:14.051Z,12.69
2017-10-04T00:43:14.358Z,12.71
2017-10-04T00:44:14.345Z,12.66
2017-10-04T00:45:14.330Z,12.66
2017-10-04T00:46:14.000Z,12.69
2017-10-04T00:47:14.300Z,12.54
2017-10-04T00:48:13.962Z,12.54
2017-10-04T00:49:13.626Z,12.66
2017-10-04T00:50:13.608Z,12.69
2017-10-04T00:51:13.594Z,12.63
2017-10-04T00:52:14.220Z,12.63
2017-10-04T00:53:13.568Z,12.64
2017-10-04T00:54:13.551Z,12.64
2017-10-04T00:55:14.184Z,12.62
2017-10-04T00:56:13.857Z,12.63
2017-10-04T00:57:14.155Z,12.6
2017-10-04T00:58:14.132Z,12.54
2017-10-04T00:59:13.796Z,12.63
2017-10-04T01:00:14.109Z,12.63
2017-10-04T01:01:13.765Z,12.54
2017-10-04T01:02:13.757Z,12.54
2017-10-04T01:03:14.105Z,12.63
2017-10-04T01:04:14.051Z,12.64
2017-10-04T01:05:13.705Z,12.57
2017-10-04T01:06:13.699Z,12.48
2017-10-04T01:07:13.672Z,12.63
2017-10-04T01:08:14.001Z,12.64
2017-10-04T01:09:13.980Z,12.62
2017-10-04T01:10:13.635Z,12.57
2017-10-04T01:11:13.934Z,12.64
2017-10-04T01:12:13.603Z,12.56
2017-10-04T01:13:13.592Z,12.56
2017-10-04T01:14:13.566Z,12.57
2017-10-04T01:15:13.559Z,12.56
2017-10-04T01:16:13.535Z,12.51
2017-10-04T01:17:13.530Z,12.57
2017-10-04T01:18:13.188Z,12.46
2017-10-04T01:19:13.819Z,12.57
2017-10-04T01:20:13.166Z,12.48
2017-10-04T01:21:13.142Z,12.52
2017-10-04T01:22:13.134Z,12.56
2017-10-04T01:23:13.436Z,12.39
2017-10-04T01:24:13.423Z,12.54
2017-10-04T01:25:13.720Z,12.46
2017-10-04T01:26:13.065Z,12.44
2017-10-04T01:27:13.372Z,12.49
2017-10-04T01:28:13.358Z,12.41
2017-10-04T01:29:13.343Z,12.52
2017-10-04T01:30:13.656Z,12.49
2017-10-04T01:31:13.642Z,12.49
2017-10-04T01:32:13.622Z,12.46
2017-10-04T01:33:13.599Z,12.51
2017-10-04T01:34:13.280Z,12.51
2017-10-04T01:35:13.259Z,12.42
2017-10-04T01:36:13.239Z,12.44
2017-10-04T01:37:13.541Z,12.48
2017-10-04T01:38:12.885Z,12.57
2017-10-04T01:39:13.521Z,12.46
2017-10-04T01:40:13.497Z,12.51
2017-10-04T01:41:12.838Z,12.48
2017-10-04T01:42:12.827Z,12.49
2017-10-04T01:43:13.451Z,12.49
2017-10-04T01:44:13.438Z,12.41
2017-10-04T01:45:13.113Z,12.46
2017-10-04T01:46:12.764Z,12.42
2017-10-04T01:47:13.080Z,12.48
2017-10-04T01:48:13.376Z,12.49
2017-10-04T01:49:13.044Z,12.49
2017-10-04T01:50:13.020Z,12.49
2017-10-04T01:51:13.023Z,12.51
2017-10-04T01:52:12.674Z,12.49
2017-10-04T01:53:12.978Z,12.39
2017-10-04T01:54:12.962Z,12.48
2017-10-04T01:55:12.626Z,12.52
2017-10-04T01:56:12.930Z,12.49
2017-10-04T01:57:12.599Z,12.49
2017-10-04T01:58:12.899Z,12.42
2017-10-04T01:59:12.892Z,12.41
2017-10-04T02:00:12.548Z,12.41
2017-10-04T02:01:12.857Z,12.34
2017-10-04T02:02:13.172Z,12.41
2017-10-04T02:03:12.829Z,12.39
2017-10-04T02:04:12.809Z,12.41
2017-10-04T02:05:13.116Z,12.46
2017-10-04T02:06:12.801Z,12.46
2017-10-04T02:07:12.772Z,12.44
2017-10-04T02:08:13.084Z,12.34
2017-10-04T02:09:12.418Z,12.34
2017-10-04T02:10:13.251Z,12.39
2017-10-04T02:11:13.019Z,12.38
2017-10-04T02:12:13.016Z,12.33
2017-10-04T02:13:12.358Z,12.38
2017-10-04T02:14:12.674Z,12.3
2017-10-04T02:15:12.968Z,12.34
2017-10-04T02:16:12.307Z,12.37
2017-10-04T02:17:12.942Z,12.23
2017-10-04T02:18:12.602Z,12.21
2017-10-04T02:19:12.582Z,12.26
2017-10-04T02:20:12.568Z,12.26
2017-10-04T02:21:12.868Z,12.21
2017-10-04T02:22:12.538Z,12.29
2017-10-04T02:23:12.524Z,12.24
2017-10-04T02:24:12.504Z,12.27
2017-10-04T02:25:12.494Z,12.23
2017-10-04T02:26:12.798Z,12.27
2017-10-04T02:27:12.475Z,12.23
2017-10-04T02:28:12.769Z,12.19
2017-10-04T02:29:12.754Z,12.16
2017-10-04T02:30:12.139Z,12.23
2017-10-04T02:31:12.720Z,12.16
2017-10-04T02:32:12.377Z,12.29
2017-10-04T02:33:12.681Z,12.21
2017-10-04T02:34:12.675Z,12.26
2017-10-04T02:35:12.713Z,12.26
2017-10-04T02:36:12.319Z,12.19
2017-10-04T02:37:12.628Z,12.29
2017-10-04T02:38:12.606Z,12.24
2017-10-04T02:39:12.274Z,12.26
2017-10-04T02:40:12.253Z,12.19
2017-10-04T02:41:12.561Z,12.27
2017-10-04T02:42:11.908Z,12.16
2017-10-04T02:43:12.529Z,12.21
2017-10-04T02:44:12.207Z,12.29
2017-10-04T02:45:12.182Z,12.23
2017-10-04T02:46:12.503Z,12.16
2017-10-04T02:47:12.462Z,12.26
2017-10-04T02:48:11.813Z,12.27
2017-10-04T02:49:12.116Z,12.19
2017-10-04T02:50:12.103Z,12.26
2017-10-04T02:51:12.089Z,12.24
2017-10-04T02:52:12.079Z,12.24
2017-10-04T02:53:11.734Z,12.13
2017-10-04T02:54:12.040Z,12.2
2017-10-04T02:55:11.706Z,12.27
2017-10-04T02:56:12.342Z,12.21
2017-10-04T02:57:12.323Z,12.23
2017-10-04T02:58:12.302Z,12.19
2017-10-04T02:59:11.959Z,12.19
2017-10-04T03:00:12.265Z,12.21
2017-10-04T03:01:12.254Z,12.16
2017-10-04T03:02:11.926Z,12.27
2017-10-04T03:03:11.901Z,12.26
2017-10-04T03:04:11.901Z,12.2
2017-10-04T03:05:12.186Z,12.2
2017-10-04T03:06:11.533Z,12.21
2017-10-04T03:07:12.162Z,12.2
2017-10-04T03:08:11.819Z,12.2
2017-10-04T03:09:12.123Z,12.19
2017-10-04T03:10:12.122Z,12.15
2017-10-04T03:11:12.091Z,12.21
2017-10-04T03:12:12.083Z,12.15
2017-10-04T03:13:11.744Z,12.23
2017-10-04T03:14:12.060Z,12.16
2017-10-04T03:15:11.711Z,12.15
2017-10-04T03:16:12.028Z,12.21
2017-10-04T03:17:11.684Z,12.2
2017-10-04T03:18:11.668Z,12.21
2017-10-04T03:19:11.656Z,12.2
2017-10-04T03:20:11.632Z,12.15
2017-10-04T03:21:11.618Z,12.11
2017-10-04T03:22:11.933Z,12.05
2017-10-04T03:23:11.915Z,12.13
2017-10-04T03:24:11.570Z,12.12
2017-10-04T03:25:11.239Z,12.11
2017-10-04T03:26:11.220Z,12.15
2017-10-04T03:27:11.848Z,12.08
2017-10-04T03:28:11.514Z,12.15
2017-10-04T03:29:11.816Z,12.11
2017-10-04T03:30:11.803Z,12.09
2017-10-04T03:31:11.476Z,12.12
2017-10-04T03:32:11.127Z,12.11
2017-10-04T03:33:11.445Z,12.09
2017-10-04T03:34:11.099Z,12.08
2017-10-04T03:35:11.406Z,12.11
2017-10-04T03:36:11.381Z,12.13
2017-10-04T03:37:11.047Z,12.15
2017-10-04T03:38:11.688Z,12.19
2017-10-04T03:39:11.015Z,12.12
2017-10-04T03:40:11.647Z,12.12
2017-10-04T03:41:11.626Z,12.2
2017-10-04T03:42:11.294Z,12.11
2017-10-04T03:43:11.274Z,12.08
2017-10-04T03:44:11.259Z,12.05
2017-10-04T03:45:11.575Z,12.08
2017-10-04T03:46:11.226Z,12.08
2017-10-04T03:47:11.547Z,12.13
2017-10-04T03:48:10.876Z,12.09
2017-10-04T03:49:11.511Z,12.06
2017-10-04T03:50:11.175Z,12.12
2017-10-04T03:51:11.147Z,12.06
2017-10-04T03:52:11.131Z,12.06
2017-10-04T03:53:11.114Z,12.02
2017-10-04T03:54:11.105Z,12.09
2017-10-04T03:55:11.409Z,12.06
2017-10-04T03:56:10.753Z,12.05
2017-10-04T03:57:11.374Z,12.12
2017-10-04T03:58:11.363Z,12.05
2017-10-04T03:59:10.707Z,12.11
2017-10-04T04:00:11.011Z,12.06
2017-10-04T04:01:10.996Z,12.06
2017-10-04T04:02:10.655Z,12.04
2017-10-04T04:03:10.964Z,12.02
2017-10-04T04:04:11.267Z,12.06
2017-10-04T04:05:10.941Z,12.06
2017-10-04T04:06:10.922Z,12.05
2017-10-04T04:07:10.903Z,12.06
2017-10-04T04:08:10.885Z,12.11
2017-10-04T04:09:11.187Z,12.06
2017-10-04T04:10:11.062Z,12.08
2017-10-04T04:11:10.839Z,12.09
2017-10-04T04:12:10.820Z,12.04
2017-10-04T04:13:11.127Z,12.11
2017-10-04T04:14:11.109Z,12.08
2017-10-04T04:15:10.776Z,12.04
2017-10-04T04:16:10.756Z,11.97
2017-10-04T04:17:10.744Z,12.08
2017-10-04T04:18:10.415Z,11.94
2017-10-04T04:19:10.717Z,12.02
2017-10-04T04:20:11.022Z,12.05
2017-10-04T04:21:10.686Z,12.08
2017-10-04T04:22:10.664Z,12.04
2017-10-04T04:23:10.329Z,11.99
2017-10-04T04:24:10.634Z,12.01
2017-10-04T04:25:10.938Z,11.94
2017-10-04T04:26:10.607Z,11.99
2017-10-04T04:27:10.924Z,11.99
2017-10-04T04:28:10.570Z,11.93
2017-10-04T04:29:10.555Z,11.93
2017-10-04T04:30:10.549Z,12.01
2017-10-04T04:31:10.522Z,12.01
2017-10-04T04:32:10.510Z,11.99
2017-10-04T04:33:10.818Z,11.97
2017-10-04T04:34:10.481Z,11.97
2017-10-04T04:35:10.142Z,11.97
2017-10-04T04:36:10.765Z,11.96
2017-10-04T04:37:10.754Z,11.96
2017-10-04T04:38:10.417Z,12.01
2017-10-04T04:39:10.394Z,11.99
2017-10-04T04:40:10.383Z,11.94
2017-10-04T04:41:10.368Z,11.89
2017-10-04T04:42:10.355Z,11.99
2017-10-04T04:43:10.656Z,11.93
2017-10-04T04:44:10.326Z,11.85
2017-10-04T04:45:09.988Z,11.89
2017-10-04T04:46:10.615Z,11.94
2017-10-04T04:47:10.276Z,11.83
2017-10-04T04:48:10.582Z,11.94
2017-10-04T04:49:10.575Z,11.93
2017-10-04T04:50:10.553Z,11.89
2017-10-04T04:51:10.533Z,11.96
2017-10-04T04:52:10.206Z,11.93
2017-10-04T04:53:10.181Z,11.87
2017-10-04T04:54:10.483Z,11.9
2017-10-04T04:55:10.164Z,11.94
2017-10-04T04:56:10.132Z,11.93
2017-10-04T04:57:10.120Z,11.96
2017-10-04T04:58:10.424Z,11.96
2017-10-04T04:59:10.406Z,11.9
2017-10-04T05:00:10.069Z,11.89
2017-10-04T05:01:10.056Z,11.93
2017-10-04T05:02:10.361Z,11.87
2017-10-04T05:03:10.021Z,11.82
2017-10-04T05:04:10.018Z,11.89
2017-10-04T05:05:09.996Z,11.86
2017-10-04T05:06:10.299Z,11.75
2017-10-04T05:07:09.960Z,11.77
2017-10-04T05:08:09.954Z,11.9
2017-10-04T05:09:10.247Z,11.87
2017-10-04T05:10:09.917Z,11.96
2017-10-04T05:11:09.898Z,11.89
2017-10-04T05:12:09.883Z,11.89
2017-10-04T05:13:10.187Z,11.89
2017-10-04T05:14:10.174Z,11.96
2017-10-04T05:15:09.523Z,11.96
2017-10-04T05:16:09.839Z,11.86
2017-10-04T05:17:10.122Z,11.89
2017-10-04T05:18:10.119Z,11.96
2017-10-04T05:19:09.771Z,11.96
2017-10-04T05:20:09.765Z,11.86
2017-10-04T05:21:09.422Z,11.96
2017-10-04T05:22:09.720Z,11.89
2017-10-04T05:23:10.039Z,11.96
2017-10-04T05:24:09.694Z,11.89
2017-10-04T05:25:09.368Z,11.89
2017-10-04T05:26:09.657Z,11.9
2017-10-04T05:27:09.657Z,11.87
2017-10-04T05:28:09.310Z,11.89
2017-10-04T05:29:09.615Z,11.94
2017-10-04T05:30:09.600Z,11.94
2017-10-04T05:31:09.582Z,11.93
2017-10-04T05:32:09.564Z,11.86
2017-10-04T05:33:09.869Z,11.89
2017-10-04T05:34:09.552Z,11.77
2017-10-04T05:35:09.848Z,11.87
2017-10-04T05:36:09.505Z,11.94
2017-10-04T05:37:09.172Z,11.85
2017-10-04T05:38:09.150Z,11.9
2017-10-04T05:39:09.458Z,11.9
2017-10-04T05:40:09.444Z,11.94
2017-10-04T05:41:09.762Z,11.96
2017-10-04T05:42:09.409Z,11.85
2017-10-04T05:43:09.072Z,11.89
2017-10-04T05:44:09.377Z,11.89
2017-10-04T05:45:09.369Z,11.85
2017-10-04T05:46:09.673Z,11.97
2017-10-04T05:47:09.657Z,11.9
2017-10-04T05:48:09.316Z,11.87
2017-10-04T05:49:09.623Z,11.97
2017-10-04T05:50:09.284Z,11.93
2017-10-04T05:51:08.950Z,11.99
2017-10-04T05:52:09.265Z,11.99
2017-10-04T05:53:09.239Z,11.94
2017-10-04T05:54:09.545Z,11.93
2017-10-04T05:55:09.205Z,11.96
2017-10-04T05:56:09.193Z,11.94
2017-10-04T05:57:08.852Z,11.99
2017-10-04T05:58:09.164Z,11.94
2017-10-04T05:59:09.144Z,11.97
2017-10-04T06:00:09.131Z,12.01
2017-10-04T06:01:09.432Z,11.97
2017-10-04T06:02:09.093Z,11.97
2017-10-04T06:03:09.411Z,11.97
2017-10-04T06:04:09.396Z,11.97
2017-10-04T06:05:09.061Z,11.94
2017-10-04T06:06:08.715Z,12.05
2017-10-04T06:07:08.698Z,12.08
2017-10-04T06:08:09.010Z,12.08
2017-10-04T06:09:08.988Z,12.09
2017-10-04T06:10:09.177Z,12.09
2017-10-04T06:11:08.959Z,12.13
2017-10-04T06:12:08.628Z,11.97
2017-10-04T06:13:08.931Z,12.05
2017-10-04T06:14:08.920Z,12.08
2017-10-04T06:15:09.215Z,12.09
2017-10-04T06:16:09.201Z,12.06
2017-10-04T06:17:08.868Z,12.08
2017-10-04T06:18:08.849Z,12.06
2017-10-04T06:19:08.829Z,12.11
2017-10-04T06:20:08.810Z,12.02
2017-10-04T06:21:08.797Z,12.05
2017-10-04T06:22:09.104Z,12.06
2017-10-04T06:23:08.446Z,12.06
2017-10-04T06:24:08.755Z,12.04
2017-10-04T06:25:08.738Z,12.02
2017-10-04T06:26:08.719Z,12.06
2017-10-04T06:27:09.028Z,12.06
2017-10-04T06:28:09.012Z,12.06
2017-10-04T06:29:08.672Z,12.09
2017-10-04T06:30:08.665Z,12.12
2017-10-04T06:31:08.644Z,12.08
2017-10-04T06:32:08.952Z,12.09
2017-10-04T06:33:08.931Z,12.01
2017-10-04T06:34:08.590Z,12.09
2017-10-04T06:35:08.584Z,11.99
2017-10-04T06:36:08.885Z,12.09
2017-10-04T06:37:08.552Z,12.06
2017-10-04T06:38:08.546Z,12.11
2017-10-04T06:39:08.856Z,12.12
2017-10-04T06:40:08.511Z,12.24
2017-10-04T06:41:08.485Z,12.29
2017-10-04T06:42:08.469Z,12.24
2017-10-04T06:43:08.139Z,12.21
2017-10-04T06:44:08.437Z,12.21
2017-10-04T06:45:08.103Z,12.23
2017-10-04T06:46:08.416Z,12.26
2017-10-04T06:47:08.715Z,12.24
2017-10-04T06:48:08.697Z,12.3
2017-10-04T06:49:08.360Z,12.26
2017-10-04T06:50:08.664Z,12.26
2017-10-04T06:51:08.013Z,12.33
2017-10-04T06:52:08.332Z,12.21
2017-10-04T06:53:08.313Z,12.26
2017-10-04T06:54:08.615Z,12.34
2017-10-04T06:55:08.592Z,12.31
2017-10-04T06:56:08.261Z,12.39
2017-10-04T06:57:08.257Z,12.34
2017-10-04T06:58:08.236Z,12.31
2017-10-04T06:59:08.211Z,12.31
2017-10-04T07:00:08.189Z,12.37
2017-10-04T07:01:08.497Z,12.34
2017-10-04T07:02:08.478Z,12.33
2017-10-04T07:03:08.468Z,12.42
2017-10-04T07:04:08.457Z,12.37
2017-10-04T07:05:08.110Z,12.33
2017-10-04T07:06:08.429Z,12.37
2017-10-04T07:07:08.084Z,12.33
2017-10-04T07:08:08.072Z,12.41
2017-10-04T07:09:08.054Z,12.41
2017-10-04T07:10:08.044Z,12.44
2017-10-04T07:11:08.025Z,12.41
2017-10-04T07:12:08.327Z,12.52
2017-10-04T07:13:08.318Z,12.44
2017-10-04T07:14:07.969Z,12.51
2017-10-04T07:15:07.964Z,12.51
2017-10-04T07:16:07.954Z,12.48
2017-10-04T07:17:08.252Z,12.46
2017-10-04T07:18:07.918Z,12.62
2017-10-04T07:19:07.893Z,12.52
2017-10-04T07:20:07.565Z,12.6
2017-10-04T07:21:07.868Z,12.66
2017-10-04T07:22:07.852Z,12.66
2017-10-04T07:23:07.848Z,12.66
2017-10-04T07:24:07.499Z,12.64
2017-10-04T07:25:07.489Z,12.63
2017-10-04T07:26:08.121Z,12.66
2017-10-04T07:27:07.790Z,12.66
2017-10-04T07:28:07.767Z,12.66
2017-10-04T07:29:07.748Z,12.57
2017-10-04T07:30:07.737Z,12.6
2017-10-04T07:31:07.716Z,12.64
2017-10-04T07:32:07.710Z,12.66
2017-10-04T07:33:07.368Z,12.63
2017-10-04T07:34:07.679Z,12.66
2017-10-04T07:35:07.336Z,12.67
2017-10-04T07:36:07.650Z,12.67
2017-10-04T07:37:07.946Z,12.74
2017-10-04T07:38:07.290Z,12.77
2017-10-04T07:39:07.597Z,12.84
2017-10-04T07:40:07.584Z,12.84
2017-10-04T07:41:07.888Z,12.97
2017-10-04T07:42:07.552Z,12.99
2017-10-04T07:43:07.545Z,13.07
2017-10-04T07:44:07.842Z,13.11
2017-10-04T07:45:07.518Z,13.06
2017-10-04T07:46:07.816Z,13.11
2017-10-04T07:47:07.166Z,13.18
2017-10-04T07:48:07.793Z,13.24
2017-10-04T07:49:07.127Z,13.27
2017-10-04T07:50:07.757Z,13.29
2017-10-04T07:51:07.429Z,13.24
2017-10-04T07:52:07.407Z,13.25
2017-10-04T07:53:07.396Z,13.32
2017-10-04T07:54:07.704Z,13.33
2017-10-04T07:55:07.046Z,13.24
2017-10-04T07:56:07.358Z,13.32
2017-10-04T07:57:07.016Z,13.33
2017-10-04T07:58:07.324Z,13.22
2017-10-04T07:59:07.356Z,13.32
2017-10-04T08:00:07.299Z,13.33
2017-10-04T08:01:07.275Z,13.29
2017-10-04T08:02:07.287Z,13.25
2017-10-04T08:03:07.565Z,13.37
2017-10-04T08:04:07.236Z,13.3
2017-10-04T08:05:07.227Z,13.22
2017-10-04T08:06:07.209Z,13.33
2017-10-04T08:07:07.205Z,13.41
2017-10-04T08:08:07.496Z,13.38
2017-10-04T08:09:07.486Z,13.37
2017-10-04T08:10:07.024Z,13.43
2017-10-04T08:11:07.452Z,13.4
2017-10-04T08:12:07.446Z,13.38
2017-10-04T08:13:06.787Z,13.38
2017-10-04T08:14:07.096Z,13.33
2017-10-04T08:15:07.074Z,13.43
2017-10-04T08:16:06.741Z,13.47
2017-10-04T08:17:07.368Z,13.41
2017-10-04T08:18:07.043Z,13.49
2017-10-04T08:19:07.353Z,13.41
2017-10-04T08:20:07.331Z,13.4
2017-10-04T08:21:06.996Z,13.41
2017-10-04T08:22:06.980Z,13.4
2017-10-04T08:23:06.643Z,13.38
2017-10-04T08:24:06.952Z,13.38
2017-10-04T08:25:06.941Z,13.32
2017-10-04T08:26:06.602Z,13.43
2017-10-04T08:27:06.909Z,13.41
2017-10-04T08:28:06.575Z,13.44
2017-10-04T08:29:07.196Z,13.54
2017-10-04T08:30:06.862Z,13.54
2017-10-04T08:31:07.169Z,13.51
2017-10-04T08:32:06.838Z,13.63
2017-10-04T08:33:06.815Z,13.55
2017-10-04T08:34:07.135Z,13.69
2017-10-04T08:35:06.802Z,13.58
2017-10-04T08:36:06.470Z,13.54
2017-10-04T08:37:06.768Z,13.55
2017-10-04T08:38:06.752Z,13.51
2017-10-04T08:39:06.743Z,13.46
2017-10-04T08:40:07.047Z,13.49
2017-10-04T08:41:06.720Z,13.46
2017-10-04T08:42:07.025Z,13.44
2017-10-04T08:43:06.686Z,13.43
2017-10-04T08:44:06.349Z,13.41
2017-10-04T08:45:06.333Z,13.41
2017-10-04T08:46:06.682Z,13.43
2017-10-04T08:47:06.975Z,13.44
2017-10-04T08:48:06.314Z,13.43
2017-10-04T08:49:06.930Z,13.52
2017-10-04T08:50:06.905Z,13.55
2017-10-04T08:51:06.245Z,13.59
2017-10-04T08:52:06.874Z,13.62
2017-10-04T08:53:06.859Z,13.61
2017-10-04T08:54:06.841Z,13.62
2017-10-04T08:55:06.518Z,13.71
2017-10-04T08:56:06.821Z,13.79
2017-10-04T08:57:06.809Z,13.67
2017-10-04T08:58:06.477Z,13.73
2017-10-04T08:59:06.451Z,13.76
2017-10-04T09:00:06.452Z,13.79
2017-10-04T09:01:06.435Z,13.89
2017-10-04T09:02:06.730Z,13.8
2017-10-04T09:03:06.395Z,13.84
2017-10-04T09:04:06.701Z,13.92
2017-10-04T09:05:06.365Z,13.98
2017-10-04T09:06:06.362Z,13.95
2017-10-04T09:07:06.664Z,14.04
2017-10-04T09:08:06.010Z,13.99
2017-10-04T09:09:06.634Z,13.98
2017-10-04T09:10:05.984Z,14.02
2017-10-04T09:11:06.282Z,14.09
2017-10-04T09:12:06.598Z,14.13
2017-10-04T09:13:06.585Z,14.24
2017-10-04T09:14:06.250Z,14.28
2017-10-04T09:15:06.235Z,14.29
2017-10-04T09:16:05.900Z,14.35
2017-10-04T09:17:05.884Z,14.52
2017-10-04T09:18:06.196Z,14.5
2017-10-04T09:19:06.501Z,14.72
2017-10-04T09:20:06.493Z,14.75
2017-10-04T09:21:06.484Z,14.75
2017-10-04T09:22:06.146Z,14.88
2017-10-04T09:23:06.451Z,14.75
2017-10-04T09:24:06.440Z,14.78
2017-10-04T09:25:06.422Z,14.78
2017-10-04T09:26:06.097Z,14.72
2017-10-04T09:27:06.076Z,14.81
2017-10-04T09:28:06.382Z,14.72
2017-10-04T09:29:06.049Z,14.8
2017-10-04T09:30:06.036Z,14.71
2017-10-04T09:31:06.025Z,14.69
2017-10-04T09:32:06.365Z,14.69
2017-10-04T09:33:06.002Z,14.69
2017-10-04T09:34:05.988Z,14.54
2017-10-04T09:35:05.968Z,14.49
2017-10-04T09:36:05.965Z,14.46
2017-10-04T09:37:05.628Z,14.49
2017-10-04T09:38:05.618Z,14.5
2017-10-04T09:39:06.241Z,14.44
2017-10-04T09:40:06.232Z,14.46
2017-10-04T09:41:05.899Z,14.47
2017-10-04T09:42:05.895Z,14.43
2017-10-04T09:43:06.216Z,14.42
2017-10-04T09:44:06.178Z,14.38
2017-10-04T09:45:06.169Z,14.35
2017-10-04T09:46:05.832Z,14.35
2017-10-04T09:47:05.815Z,14.31
2017-10-04T09:48:06.126Z,14.29
2017-10-04T09:49:06.119Z,14.21
2017-10-04T09:50:05.776Z,14.2
2017-10-04T09:51:05.766Z,14.25
2017-10-04T09:52:06.079Z,14.2
2017-10-04T09:53:06.060Z,14.29
2017-10-04T09:54:06.052Z,14.25
2017-10-04T09:55:06.042Z,14.27
2017-10-04T09:56:05.697Z,14.24
2017-10-04T09:57:05.680Z,14.28
2017-10-04T09:58:05.667Z,14.12
2017-10-04T09:59:05.980Z,14.09
2017-10-04T10:00:05.643Z,14.04
2017-10-04T10:01:05.958Z,14.13
2017-10-04T10:02:05.615Z,14.06
2017-10-04T10:03:05.280Z,14.06
2017-10-04T10:04:05.594Z,14.14
2017-10-04T10:05:05.574Z,14.12
2017-10-04T10:06:05.247Z,14.04
2017-10-04T10:07:05.543Z,14.02
2017-10-04T10:08:05.530Z,14.07
2017-10-04T10:09:05.839Z,14.04
2017-10-04T10:10:05.905Z,14.06
2017-10-04T10:11:05.816Z,14.04
2017-10-04T10:12:06.008Z,14.01
2017-10-04T10:13:05.787Z,14.04
2017-10-04T10:14:05.453Z,14.1
2017-10-04T10:15:05.118Z,14.13
2017-10-04T10:16:05.418Z,14.13
2017-10-04T10:17:05.737Z,14.28
2017-10-04T10:18:05.472Z,14.29
2017-10-04T10:19:05.065Z,14.28
2017-10-04T10:20:05.694Z,14.31
2017-10-04T10:21:05.352Z,14.24
2017-10-04T10:22:05.663Z,14.31
2017-10-04T10:23:05.651Z,14.25
2017-10-04T10:24:05.316Z,14.35
2017-10-04T10:25:04.980Z,14.31
2017-10-04T10:26:05.292Z,14.39
2017-10-04T10:27:04.947Z,14.42
2017-10-04T10:28:04.937Z,14.47
2017-10-04T10:29:05.249Z,14.37
2017-10-04T10:30:04.908Z,14.57
2017-10-04T10:31:04.896Z,14.5
2017-10-04T10:32:05.535Z,14.56
2017-10-04T10:33:05.190Z,14.53
2017-10-04T10:34:04.854Z,14.53
2017-10-04T10:35:05.490Z,14.57
2017-10-04T10:36:05.146Z,14.62
2017-10-04T10:37:05.147Z,14.67
2017-10-04T10:38:04.808Z,14.74
2017-10-04T10:39:05.433Z,14.78
2017-10-04T10:40:05.111Z,14.87
2017-10-04T10:41:05.080Z,14.81
2017-10-04T10:42:05.395Z,14.88
2017-10-04T10:43:04.743Z,14.99
2017-10-04T10:44:05.078Z,15.05
2017-10-04T10:45:05.039Z,15.01
2017-10-04T10:46:05.346Z,14.99
2017-10-04T10:47:04.689Z,15.13
2017-10-04T10:48:04.673Z,15.09
2017-10-04T10:49:05.302Z,15.08
2017-10-04T10:50:05.292Z,15.08
2017-10-04T10:51:04.979Z,15.09
2017-10-04T10:52:05.262Z,15.28
2017-10-04T10:53:05.255Z,15.35
2017-10-04T10:54:04.921Z,15.41
2017-10-04T10:55:04.595Z,15.46
2017-10-04T10:56:05.219Z,15.56
2017-10-04T10:57:05.201Z,15.42
2017-10-04T10:58:04.551Z,15.59
2017-10-04T10:59:04.536Z,15.51
2017-10-04T11:00:05.167Z,15.52
2017-10-04T11:01:05.162Z,15.59
2017-10-04T11:02:04.501Z,15.54
2017-10-04T11:03:05.141Z,15.52
2017-10-04T11:04:05.130Z,15.54
2017-10-04T11:05:04.466Z,15.56
2017-10-04T11:06:04.461Z,15.51
2017-10-04T11:07:05.080Z,15.41
2017-10-04T11:08:05.080Z,15.3
2017-10-04T11:09:04.739Z,15.21
2017-10-04T11:10:04.403Z,15.2
2017-10-04T11:11:04.391Z,15.12
2017-10-04T11:12:04.710Z,15.11
2017-10-04T11:13:04.691Z,14.99
2017-10-04T11:14:04.355Z,14.9
2017-10-04T11:15:04.668Z,14.93
2017-10-04T11:16:04.653Z,14.87
2017-10-04T11:17:04.643Z,14.8
2017-10-04T11:18:04.946Z,14.74
2017-10-04T11:19:04.612Z,14.71
2017-10-04T11:20:04.934Z,14.69
2017-10-04T11:21:04.908Z,14.8
2017-10-04T11:22:04.258Z,14.88
2017-10-04T11:23:04.576Z,14.95
2017-10-04T11:24:04.566Z,14.93
2017-10-04T11:25:04.542Z,14.87
2017-10-04T11:26:04.205Z,14.84
2017-10-04T11:27:04.192Z,14.78
2017-10-04T11:28:04.828Z,14.8
2017-10-04T11:29:04.809Z,14.84
2017-10-04T11:30:04.156Z,14.84
2017-10-04T11:31:04.799Z,14.88
2017-10-04T11:32:04.453Z,14.98
2017-10-04T11:33:04.759Z,15.05
2017-10-04T11:34:04.431Z,15.31
2017-10-04T11:35:04.415Z,15.33
2017-10-04T11:36:04.413Z,15.28
2017-10-04T11:37:04.399Z,15.31
2017-10-04T11:38:04.058Z,15.28
2017-10-04T11:39:04.684Z,15.24
2017-10-04T11:40:04.027Z,15.27
2017-10-04T11:41:04.669Z,15.28
2017-10-04T11:42:04.329Z,15.24
2017-10-04T11:43:04.312Z,15.27
2017-10-04T11:44:04.306Z,15.36
2017-10-04T11:45:03.972Z,15.36
2017-10-04T11:46:04.601Z,15.54
2017-10-04T11:47:04.266Z,15.64
2017-10-04T11:48:04.578Z,15.72
2017-10-04T11:49:04.245Z,15.67
2017-10-04T11:50:03.906Z,15.64
2017-10-04T11:51:04.219Z,15.67
2017-10-04T11:52:04.202Z,15.63
2017-10-04T11:53:04.190Z,15.66
2017-10-04T11:54:04.185Z,15.63
2017-10-04T11:55:04.487Z,15.63
2017-10-04T11:56:04.161Z,15.63
2017-10-04T11:57:04.143Z,15.64
2017-10-04T11:58:04.136Z,15.56
2017-10-04T11:59:04.448Z,15.52
2017-10-04T12:00:04.429Z,15.56
2017-10-04T12:01:03.775Z,15.67
2017-10-04T12:02:04.100Z,15.59
2017-10-04T12:03:04.393Z,15.68
2017-10-04T12:04:04.057Z,15.82
2017-10-04T12:05:04.049Z,15.78
2017-10-04T12:06:04.365Z,15.88
2017-10-04T12:07:03.706Z,15.93
2017-10-04T12:08:04.017Z,15.92
2017-10-04T12:09:04.001Z,15.96
2017-10-04T12:10:03.672Z,15.93
2017-10-04T12:11:03.983Z,15.93
2017-10-04T12:12:04.293Z,15.75
2017-10-04T12:13:03.957Z,15.81
2017-10-04T12:14:04.287Z,15.74
2017-10-04T12:15:04.259Z,15.82
2017-10-04T12:16:03.599Z,15.72
2017-10-04T12:17:04.230Z,15.74
2017-10-04T12:18:03.900Z,15.67
2017-10-04T12:19:04.276Z,15.79
2017-10-04T12:20:03.880Z,15.7
2017-10-04T12:21:03.862Z,15.66
2017-10-04T12:22:04.180Z,15.64
2017-10-04T12:23:03.848Z,15.64
2017-10-04T12:24:03.505Z,15.59
2017-10-04T12:25:03.815Z,15.52
2017-10-04T12:26:03.494Z,15.51
2017-10-04T12:27:03.475Z,15.52
2017-10-04T12:28:04.101Z,15.57
2017-10-04T12:29:03.779Z,15.52
2017-10-04T12:30:03.760Z,15.64
2017-10-04T12:31:03.759Z,15.68
2017-10-04T12:32:03.411Z,15.68
2017-10-04T12:33:03.410Z,15.64
2017-10-04T12:34:03.390Z,15.56
2017-10-04T12:35:03.706Z,15.61
2017-10-04T12:36:03.685Z,15.61
2017-10-04T12:37:03.352Z,15.63
2017-10-04T12:38:03.337Z,15.54
2017-10-04T12:39:03.651Z,15.54
2017-10-04T12:40:03.641Z,15.54
2017-10-04T12:41:03.631Z,15.52
2017-10-04T12:42:03.933Z,15.57
2017-10-04T12:43:03.602Z,15.46
2017-10-04T12:44:03.914Z,15.45
2017-10-04T12:45:03.583Z,15.41
2017-10-04T12:46:03.891Z,15.36
2017-10-04T12:47:03.880Z,15.41
2017-10-04T12:48:03.546Z,15.35
2017-10-04T12:49:03.533Z,15.2
2017-10-04T12:50:03.837Z,15.31
2017-10-04T12:51:03.187Z,15.27
2017-10-04T12:52:03.491Z,15.26
2017-10-04T12:53:03.805Z,15.26
2017-10-04T12:54:03.473Z,15.19